Yukikaze — JD2438 — position and weather

sailwx.info

Track history (hours):
 
Tides and Currents Weather Stations Pressure Air Temp Water Temp Dewpoint Dewpoint Depression Visibility Wind Speed Wind Dir Waves Ship Positions

Yukikaze

Last reported at 2017-Nov-24 04:17 UTC. Time now 2017-Nov-24 14:53 UTC.
Position N 35°29' E 139°40'.

Length 26 m.

MMSI: 431000229.

Date/timePositionNaut miles runAvg speedWind from/ knotsBaromVisibWave heightAir tempDewpointWater temp
2017-Nov-24 04:17N 35°29' E 139°40'311.5
2017-Nov-24 04:01N 35°26' E 139°42'815.2
2017-Nov-24 03:30N 35°19' E 139°43'714.5
2017-Nov-24 03:00N 35°12' E 139°46'5 9.6
2017-Nov-24 02:30N 35°17' E 139°45'612.4
2017-Nov-24 02:01N 35°22' E 139°42'611.0
2017-Nov-24 01:30N 35°27' E 139°45'1 1.3
2017-Nov-24 01:00N 35°28' E 139°45'0 0.2
2017-Nov-24 00:30N 35°28' E 139°45'4 7.7
2017-Nov-24 00:01N 35°28' E 139°40'0 1.0
2017-Nov-23 23:30N 35°29' E 139°40'0 0.0
2017-Nov-23 06:46N 35°29' E 139°40'2 8.2
2017-Nov-23 06:30N 35°28' E 139°42'4 8.6
2017-Nov-23 06:00N 35°28' E 139°48'0 0.6
2017-Nov-23 05:30N 35°28' E 139°47'0 0.1
2017-Nov-23 05:00N 35°28' E 139°47'0 0.1
2017-Nov-23 04:31N 35°28' E 139°47'0 0.1
2017-Nov-23 04:01N 35°28' E 139°47'0 0.1
2017-Nov-23 03:30N 35°28' E 139°47'0 0.3
2017-Nov-23 03:00N 35°28' E 139°47'0 0.2
2017-Nov-23 02:30N 35°28' E 139°47'0 0.3
2017-Nov-23 02:00N 35°28' E 139°47'0 0.3
2017-Nov-23 01:30N 35°28' E 139°47'0 0.5
2017-Nov-23 01:01N 35°28' E 139°47'2 3.8
2017-Nov-23 00:30N 35°30' E 139°48'0 0.9
2017-Nov-23 00:00N 35°30' E 139°47'511.0
2017-Nov-22 23:31N 35°28' E 139°41'1 2.0
2017-Nov-22 23:00N 35°29' E 139°40'0 0.0
2017-Nov-22 22:30N 35°29' E 139°40'  
2017-Nov-20 00:30N 35°11' E 139°47'816.2
2017-Nov-20 00:00N 35°19' E 139°43'815.7
2017-Nov-19 23:31N 35°26' E 139°42'3 5.6
2017-Nov-19 23:01N 35°29' E 139°40'0 0.0
2017-Nov-19 22:30N 35°29' E 139°40'0 0.0
2017-Nov-19 00:49N 35°29' E 139°40'3 8.5
2017-Nov-19 00:30N 35°30' E 139°43'3 5.6
2017-Nov-19 00:00N 35°31' E 139°46'0 0.2
2017-Nov-18 23:30N 35°31' E 139°46'0 0.0
2017-Nov-18 23:00N 35°31' E 139°46'0 0.0
2017-Nov-18 22:30N 35°31' E 139°46'0 0.0
2017-Nov-17 01:46N 35°31' E 139°46'0 0.9
2017-Nov-17 01:30N 35°32' E 139°46'0 0.1
2017-Nov-17 01:00N 35°32' E 139°46'2 3.4
2017-Nov-17 00:26N 35°30' E 139°47'3 6.1
2017-Nov-17 00:00N 35°28' E 139°47'4 7.6
2017-Nov-16 23:30N 35°28' E 139°43'2 4.6
2017-Nov-16 23:00N 35°29' E 139°40'0 0.0
2017-Nov-16 05:22N 35°29' E 139°40'2 6.4
2017-Nov-16 05:00N 35°27' E 139°40'3 5.0
2017-Nov-16 04:30N 35°25' E 139°42'815.4
2017-Nov-16 04:00N 35°17' E 139°44'4 7.4
2017-Nov-16 03:31N 35°14' E 139°46'612.7
2017-Nov-16 03:01N 35°20' E 139°43'611.9
2017-Nov-16 02:30N 35°25' E 139°45'4 8.9
2017-Nov-16 02:00N 35°22' E 139°49'1 1.9
2017-Nov-16 01:31N 35°21' E 139°49'0 0.2
2017-Nov-16 00:59N 35°21' E 139°49'713.7
2017-Nov-16 00:31N 35°26' E 139°43'4 8.3
2017-Nov-16 00:00N 35°29' E 139°40'0 0.0
2017-Nov-15 23:30N 35°29' E 139°40'0 0.0
2017-Nov-15 05:02N 35°29' E 139°40'0 1.6
2017-Nov-15 05:00N 35°29' E 139°40'713.1
2017-Nov-15 04:30N 35°22' E 139°41'815.3
2017-Nov-15 04:00N 35°15' E 139°45'1 2.0
2017-Nov-15 03:30N 35°15' E 139°46'613.2
2017-Nov-15 03:01N 35°21' E 139°42'4 7.9
2017-Nov-15 02:30N 35°24' E 139°40'1 1.0
2017-Nov-15 02:00N 35°24' E 139°39'0 0.2
2017-Nov-15 01:30N 35°24' E 139°39'3 6.6
2017-Nov-15 01:01N 35°28' E 139°40'1 2.8
2017-Nov-15 00:30N 35°29' E 139°40'0 0.0
2017-Nov-15 00:00N 35°29' E 139°40'0 0.0
2017-Nov-14 05:24N 35°29' E 139°40'512.2
2017-Nov-14 05:00N 35°24' E 139°42'715.0
2017-Nov-14 04:31N 35°17' E 139°44'  
Track history (hours):
 
Tides and Currents Weather Stations Pressure Air Temp Water Temp Dewpoint Dewpoint Depression Visibility Wind Speed Wind Dir Waves Ship Positions

Yukikaze

Last reported at 2017-Nov-24 04:17 UTC. Time now 2017-Nov-24 14:53 UTC.
Position N 35°29' E 139°40'.

Length 26 m.

MMSI: 431000229.

Date/timePositionNaut miles runAvg speedWind from/ knotsBaromVisibWave heightAir tempDewpointWater temp
2017-Nov-24 04:17N 35°29' E 139°40'311.5
2017-Nov-24 04:01N 35°26' E 139°42'815.2
2017-Nov-24 03:30N 35°19' E 139°43'714.5
2017-Nov-24 03:00N 35°12' E 139°46'5 9.6
2017-Nov-24 02:30N 35°17' E 139°45'612.4
2017-Nov-24 02:01N 35°22' E 139°42'611.0
2017-Nov-24 01:30N 35°27' E 139°45'1 1.3
2017-Nov-24 01:00N 35°28' E 139°45'0 0.2
2017-Nov-24 00:30N 35°28' E 139°45'4 7.7
2017-Nov-24 00:01N 35°28' E 139°40'0 1.0
2017-Nov-23 23:30N 35°29' E 139°40'0 0.0
2017-Nov-23 06:46N 35°29' E 139°40'2 8.2
2017-Nov-23 06:30N 35°28' E 139°42'4 8.6
2017-Nov-23 06:00N 35°28' E 139°48'0 0.6
2017-Nov-23 05:30N 35°28' E 139°47'0 0.1
2017-Nov-23 05:00N 35°28' E 139°47'0 0.1
2017-Nov-23 04:31N 35°28' E 139°47'0 0.1
2017-Nov-23 04:01N 35°28' E 139°47'0 0.1
2017-Nov-23 03:30N 35°28' E 139°47'0 0.3
2017-Nov-23 03:00N 35°28' E 139°47'0 0.2
2017-Nov-23 02:30N 35°28' E 139°47'0 0.3
2017-Nov-23 02:00N 35°28' E 139°47'0 0.3
2017-Nov-23 01:30N 35°28' E 139°47'0 0.5
2017-Nov-23 01:01N 35°28' E 139°47'2 3.8
2017-Nov-23 00:30N 35°30' E 139°48'0 0.9
2017-Nov-23 00:00N 35°30' E 139°47'511.0
2017-Nov-22 23:31N 35°28' E 139°41'1 2.0
2017-Nov-22 23:00N 35°29' E 139°40'0 0.0
2017-Nov-22 22:30N 35°29' E 139°40'  
2017-Nov-20 00:30N 35°11' E 139°47'816.2
2017-Nov-20 00:00N 35°19' E 139°43'815.7
2017-Nov-19 23:31N 35°26' E 139°42'3 5.6
2017-Nov-19 23:01N 35°29' E 139°40'0 0.0
2017-Nov-19 22:30N 35°29' E 139°40'0 0.0
2017-Nov-19 00:49N 35°29' E 139°40'3 8.5
2017-Nov-19 00:30N 35°30' E 139°43'3 5.6
2017-Nov-19 00:00N 35°31' E 139°46'0 0.2
2017-Nov-18 23:30N 35°31' E 139°46'0 0.0
2017-Nov-18 23:00N 35°31' E 139°46'0 0.0
2017-Nov-18 22:30N 35°31' E 139°46'0 0.0
2017-Nov-17 01:46N 35°31' E 139°46'0 0.9
2017-Nov-17 01:30N 35°32' E 139°46'0 0.1
2017-Nov-17 01:00N 35°32' E 139°46'2 3.4
2017-Nov-17 00:26N 35°30' E 139°47'3 6.1
2017-Nov-17 00:00N 35°28' E 139°47'4 7.6
2017-Nov-16 23:30N 35°28' E 139°43'2 4.6
2017-Nov-16 23:00N 35°29' E 139°40'0 0.0
2017-Nov-16 05:22N 35°29' E 139°40'2 6.4
2017-Nov-16 05:00N 35°27' E 139°40'3 5.0
2017-Nov-16 04:30N 35°25' E 139°42'815.4
2017-Nov-16 04:00N 35°17' E 139°44'4 7.4
2017-Nov-16 03:31N 35°14' E 139°46'612.7
2017-Nov-16 03:01N 35°20' E 139°43'611.9
2017-Nov-16 02:30N 35°25' E 139°45'4 8.9
2017-Nov-16 02:00N 35°22' E 139°49'1 1.9
2017-Nov-16 01:31N 35°21' E 139°49'0 0.2
2017-Nov-16 00:59N 35°21' E 139°49'713.7
2017-Nov-16 00:31N 35°26' E 139°43'4 8.3
2017-Nov-16 00:00N 35°29' E 139°40'0 0.0
2017-Nov-15 23:30N 35°29' E 139°40'0 0.0
2017-Nov-15 05:02N 35°29' E 139°40'0 1.6
2017-Nov-15 05:00N 35°29' E 139°40'713.1
2017-Nov-15 04:30N 35°22' E 139°41'815.3
2017-Nov-15 04:00N 35°15' E 139°45'1 2.0
2017-Nov-15 03:30N 35°15' E 139°46'613.2
2017-Nov-15 03:01N 35°21' E 139°42'4 7.9
2017-Nov-15 02:30N 35°24' E 139°40'1 1.0
2017-Nov-15 02:00N 35°24' E 139°39'0 0.2
2017-Nov-15 01:30N 35°24' E 139°39'3 6.6
2017-Nov-15 01:01N 35°28' E 139°40'1 2.8
2017-Nov-15 00:30N 35°29' E 139°40'0 0.0
2017-Nov-15 00:00N 35°29' E 139°40'0 0.0
2017-Nov-14 05:24N 35°29' E 139°40'512.2
2017-Nov-14 05:00N 35°24' E 139°42'715.0
2017-Nov-14 04:31N 35°17' E 139°44'  

Dump ship's entire track history